sensor_id;sensor_type;location;lat;lon;timestamp;P1;durP1;ratioP1;P2;durP2;ratioP2
27796;SDS011;15177;50.844;4.412;2022-09-03T00:07:36;5.47;;;2.60;;
27796;SDS011;15177;50.844;4.412;2022-09-03T00:10:12;4.38;;;2.40;;
27796;SDS011;15177;50.844;4.412;2022-09-03T00:12:45;4.00;;;2.00;;
27796;SDS011;15177;50.844;4.412;2022-09-03T00:15:12;4.05;;;2.20;;
27796;SDS011;15177;50.844;4.412;2022-09-03T00:17:48;11.32;;;2.15;;
27796;SDS011;15177;50.844;4.412;2022-09-03T00:20:20;6.75;;;2.20;;
27796;SDS011;15177;50.844;4.412;2022-09-03T00:23:13;4.10;;;2.05;;
27796;SDS011;15177;50.844;4.412;2022-09-03T00:25:45;4.68;;;1.90;;
27796;SDS011;15177;50.844;4.412;2022-09-03T00:28:18;2.83;;;2.08;;
27796;SDS011;15177;50.844;4.412;2022-09-03T00:30:50;4.00;;;1.90;;
27796;SDS011;15177;50.844;4.412;2022-09-03T00:33:25;5.28;;;2.10;;
27796;SDS011;15177;50.844;4.412;2022-09-03T00:36:03;5.28;;;2.25;;
27796;SDS011;15177;50.844;4.412;2022-09-03T00:38:42;3.42;;;1.75;;
27796;SDS011;15177;50.844;4.412;2022-09-03T00:44:10;9.48;;;2.20;;
27796;SDS011;15177;50.844;4.412;2022-09-03T00:47:26;6.65;;;2.13;;
27796;SDS011;15177;50.844;4.412;2022-09-03T00:50:14;6.20;;;2.22;;
27796;SDS011;15177;50.844;4.412;2022-09-03T00:55:44;5.57;;;2.15;;
27796;SDS011;15177;50.844;4.412;2022-09-03T01:01:19;6.40;;;2.47;;
27796;SDS011;15177;50.844;4.412;2022-09-03T01:06:41;10.05;;;2.00;;
27796;SDS011;15177;50.844;4.412;2022-09-03T01:09:38;5.43;;;2.25;;
27796;SDS011;15177;50.844;4.412;2022-09-03T01:26:01;6.10;;;2.72;;
27796;SDS011;15177;50.844;4.412;2022-09-03T01:28:48;5.47;;;2.25;;
27796;SDS011;15177;50.844;4.412;2022-09-03T01:42:22;8.23;;;2.78;;
27796;SDS011;15177;50.844;4.412;2022-09-03T01:58:34;3.95;;;2.80;;
27796;SDS011;15177;50.844;4.412;2022-09-03T02:01:09;4.57;;;2.90;;
27796;SDS011;15177;50.844;4.412;2022-09-03T02:03:44;7.13;;;3.28;;
27796;SDS011;15177;50.844;4.412;2022-09-03T02:06:11;4.60;;;3.20;;
27796;SDS011;15177;50.844;4.412;2022-09-03T02:08:37;2.63;;;2.40;;
27796;SDS011;15177;50.844;4.412;2022-09-03T02:11:04;6.95;;;3.20;;
27796;SDS011;15177;50.844;4.412;2022-09-03T02:13:42;6.28;;;3.20;;
27796;SDS011;15177;50.844;4.412;2022-09-03T02:16:15;8.15;;;3.08;;
27796;SDS011;15177;50.844;4.412;2022-09-03T02:18:53;6.68;;;3.25;;
27796;SDS011;15177;50.844;4.412;2022-09-03T02:21:26;5.53;;;3.28;;
27796;SDS011;15177;50.844;4.412;2022-09-03T02:23:57;8.63;;;3.40;;
27796;SDS011;15177;50.844;4.412;2022-09-03T02:26:24;5.95;;;3.50;;
27796;SDS011;15177;50.844;4.412;2022-09-03T02:28:50;8.45;;;3.70;;
27796;SDS011;15177;50.844;4.412;2022-09-03T02:31:17;7.75;;;4.05;;
27796;SDS011;15177;50.844;4.412;2022-09-03T02:33:44;6.53;;;3.80;;
27796;SDS011;15177;50.844;4.412;2022-09-03T02:36:12;6.90;;;3.63;;
27796;SDS011;15177;50.844;4.412;2022-09-03T02:38:41;7.25;;;4.10;;
27796;SDS011;15177;50.844;4.412;2022-09-03T02:41:08;5.55;;;4.20;;
27796;SDS011;15177;50.844;4.412;2022-09-03T02:43:53;7.20;;;4.45;;
27796;SDS011;15177;50.844;4.412;2022-09-03T02:46:33;7.60;;;4.78;;
27796;SDS011;15177;50.844;4.412;2022-09-03T02:49:07;10.30;;;4.55;;
27796;SDS011;15177;50.844;4.412;2022-09-03T02:51:34;6.57;;;4.63;;
27796;SDS011;15177;50.844;4.412;2022-09-03T02:54:02;7.38;;;4.43;;
27796;SDS011;15177;50.844;4.412;2022-09-03T02:56:28;5.65;;;4.50;;
27796;SDS011;15177;50.844;4.412;2022-09-03T02:58:54;7.15;;;4.28;;
27796;SDS011;15177;50.844;4.412;2022-09-03T03:01:20;7.72;;;4.72;;
27796;SDS011;15177;50.844;4.412;2022-09-03T03:03:46;6.32;;;4.10;;
27796;SDS011;15177;50.844;4.412;2022-09-03T03:06:12;7.75;;;4.63;;
27796;SDS011;15177;50.844;4.412;2022-09-03T03:08:38;7.63;;;5.20;;
27796;SDS011;15177;50.844;4.412;2022-09-03T03:11:04;6.75;;;4.82;;
27796;SDS011;15177;50.844;4.412;2022-09-03T03:13:30;6.90;;;4.65;;
27796;SDS011;15177;50.844;4.412;2022-09-03T03:15:57;7.93;;;5.90;;
27796;SDS011;15177;50.844;4.412;2022-09-03T03:18:24;8.25;;;5.25;;
27796;SDS011;15177;50.844;4.412;2022-09-03T03:20:50;8.95;;;5.03;;
27796;SDS011;15177;50.844;4.412;2022-09-03T03:23:16;11.18;;;5.32;;
27796;SDS011;15177;50.844;4.412;2022-09-03T03:25:42;8.93;;;4.82;;
27796;SDS011;15177;50.844;4.412;2022-09-03T03:28:08;6.97;;;5.57;;
27796;SDS011;15177;50.844;4.412;2022-09-03T03:30:36;13.77;;;5.22;;
27796;SDS011;15177;50.844;4.412;2022-09-03T03:33:03;8.23;;;5.20;;
27796;SDS011;15177;50.844;4.412;2022-09-03T03:35:30;8.48;;;4.90;;
27796;SDS011;15177;50.844;4.412;2022-09-03T03:37:57;5.70;;;4.60;;
27796;SDS011;15177;50.844;4.412;2022-09-03T03:40:23;7.18;;;4.95;;
27796;SDS011;15177;50.844;4.412;2022-09-03T03:42:49;7.43;;;4.45;;
27796;SDS011;15177;50.844;4.412;2022-09-03T03:45:15;8.45;;;4.72;;
27796;SDS011;15177;50.844;4.412;2022-09-03T03:47:42;7.57;;;4.57;;
27796;SDS011;15177;50.844;4.412;2022-09-03T03:50:09;7.80;;;4.38;;
27796;SDS011;15177;50.844;4.412;2022-09-03T03:52:35;10.07;;;4.85;;
27796;SDS011;15177;50.844;4.412;2022-09-03T03:55:00;11.45;;;4.18;;
27796;SDS011;15177;50.844;4.412;2022-09-03T03:57:28;6.60;;;4.43;;
27796;SDS011;15177;50.844;4.412;2022-09-03T03:59:54;7.60;;;4.50;;
27796;SDS011;15177;50.844;4.412;2022-09-03T04:02:20;6.78;;;4.85;;
27796;SDS011;15177;50.844;4.412;2022-09-03T04:04:46;8.30;;;5.47;;
27796;SDS011;15177;50.844;4.412;2022-09-03T04:07:11;7.78;;;4.65;;
27796;SDS011;15177;50.844;4.412;2022-09-03T04:09:37;6.38;;;3.78;;
27796;SDS011;15177;50.844;4.412;2022-09-03T04:12:13;4.95;;;3.58;;
27796;SDS011;15177;50.844;4.412;2022-09-03T04:14:39;5.30;;;3.42;;
27796;SDS011;15177;50.844;4.412;2022-09-03T04:17:05;5.25;;;3.40;;
27796;SDS011;15177;50.844;4.412;2022-09-03T04:19:31;4.32;;;3.60;;
27796;SDS011;15177;50.844;4.412;2022-09-03T04:21:56;3.78;;;2.97;;
27796;SDS011;15177;50.844;4.412;2022-09-03T04:24:22;6.63;;;3.45;;
27796;SDS011;15177;50.844;4.412;2022-09-03T04:26:49;3.35;;;3.05;;
27796;SDS011;15177;50.844;4.412;2022-09-03T04:29:14;4.75;;;3.88;;
27796;SDS011;15177;50.844;4.412;2022-09-03T04:31:42;7.32;;;4.47;;
27796;SDS011;15177;50.844;4.412;2022-09-03T04:34:29;4.85;;;4.32;;
27796;SDS011;15177;50.844;4.412;2022-09-03T04:36:54;4.85;;;4.05;;
27796;SDS011;15177;50.844;4.412;2022-09-03T04:39:22;7.25;;;4.47;;
27796;SDS011;15177;50.844;4.412;2022-09-03T04:41:48;8.93;;;4.90;;
27796;SDS011;15177;50.844;4.412;2022-09-03T04:44:13;8.10;;;5.38;;
27796;SDS011;15177;50.844;4.412;2022-09-03T04:46:40;5.57;;;4.55;;
27796;SDS011;15177;50.844;4.412;2022-09-03T04:49:05;8.55;;;4.78;;
27796;SDS011;15177;50.844;4.412;2022-09-03T04:51:34;7.63;;;4.38;;
27796;SDS011;15177;50.844;4.412;2022-09-03T04:54:01;6.35;;;5.05;;
27796;SDS011;15177;50.844;4.412;2022-09-03T04:56:28;8.38;;;4.47;;
27796;SDS011;15177;50.844;4.412;2022-09-03T04:58:59;7.60;;;4.85;;
27796;SDS011;15177;50.844;4.412;2022-09-03T05:01:31;6.25;;;5.00;;
27796;SDS011;15177;50.844;4.412;2022-09-03T05:03:58;9.63;;;5.25;;
27796;SDS011;15177;50.844;4.412;2022-09-03T05:06:25;9.40;;;4.85;;
27796;SDS011;15177;50.844;4.412;2022-09-03T05:08:52;8.52;;;4.65;;
27796;SDS011;15177;50.844;4.412;2022-09-03T05:11:20;8.73;;;4.95;;
27796;SDS011;15177;50.844;4.412;2022-09-03T05:13:47;8.18;;;5.70;;
27796;SDS011;15177;50.844;4.412;2022-09-03T05:16:17;6.75;;;5.00;;
27796;SDS011;15177;50.844;4.412;2022-09-03T05:18:44;8.20;;;4.90;;
27796;SDS011;15177;50.844;4.412;2022-09-03T05:21:14;6.18;;;4.60;;
27796;SDS011;15177;50.844;4.412;2022-09-03T05:23:42;6.57;;;4.47;;
27796;SDS011;15177;50.844;4.412;2022-09-03T05:26:11;5.68;;;4.80;;
27796;SDS011;15177;50.844;4.412;2022-09-03T05:28:39;8.45;;;4.70;;
27796;SDS011;15177;50.844;4.412;2022-09-03T05:33:54;9.13;;;5.65;;
27796;SDS011;15177;50.844;4.412;2022-09-03T05:36:23;6.63;;;5.00;;
27796;SDS011;15177;50.844;4.412;2022-09-03T05:38:50;6.43;;;5.07;;
27796;SDS011;15177;50.844;4.412;2022-09-03T05:41:18;7.82;;;5.13;;
27796;SDS011;15177;50.844;4.412;2022-09-03T05:43:46;5.22;;;3.65;;
27796;SDS011;15177;50.844;4.412;2022-09-03T05:46:17;7.38;;;5.13;;
27796;SDS011;15177;50.844;4.412;2022-09-03T05:48:44;6.32;;;4.78;;
27796;SDS011;15177;50.844;4.412;2022-09-03T05:51:12;8.20;;;5.32;;
27796;SDS011;15177;50.844;4.412;2022-09-03T05:53:46;5.60;;;4.85;;
27796;SDS011;15177;50.844;4.412;2022-09-03T05:56:15;6.45;;;4.18;;
27796;SDS011;15177;50.844;4.412;2022-09-03T05:58:47;6.88;;;4.43;;
27796;SDS011;15177;50.844;4.412;2022-09-03T06:01:21;6.53;;;4.20;;
27796;SDS011;15177;50.844;4.412;2022-09-03T06:04:07;10.35;;;4.30;;
27796;SDS011;15177;50.844;4.412;2022-09-03T06:06:37;9.10;;;4.32;;
27796;SDS011;15177;50.844;4.412;2022-09-03T06:09:08;5.68;;;4.47;;
27796;SDS011;15177;50.844;4.412;2022-09-03T06:11:40;8.32;;;4.35;;
27796;SDS011;15177;50.844;4.412;2022-09-03T06:14:07;4.88;;;4.00;;
27796;SDS011;15177;50.844;4.412;2022-09-03T06:16:38;5.03;;;4.53;;
27796;SDS011;15177;50.844;4.412;2022-09-03T06:19:05;8.73;;;4.32;;
27796;SDS011;15177;50.844;4.412;2022-09-03T06:21:34;7.55;;;4.60;;
27796;SDS011;15177;50.844;4.412;2022-09-03T06:24:00;6.97;;;4.18;;
27796;SDS011;15177;50.844;4.412;2022-09-03T06:26:27;7.03;;;4.43;;
27796;SDS011;15177;50.844;4.412;2022-09-03T06:28:53;8.05;;;4.88;;
27796;SDS011;15177;50.844;4.412;2022-09-03T06:31:20;5.93;;;4.40;;
27796;SDS011;15177;50.844;4.412;2022-09-03T06:33:47;6.75;;;4.55;;
27796;SDS011;15177;50.844;4.412;2022-09-03T06:36:14;12.65;;;4.05;;
27796;SDS011;15177;50.844;4.412;2022-09-03T06:38:41;8.95;;;4.22;;
27796;SDS011;15177;50.844;4.412;2022-09-03T06:41:09;5.30;;;3.88;;
27796;SDS011;15177;50.844;4.412;2022-09-03T06:43:41;7.07;;;3.80;;
27796;SDS011;15177;50.844;4.412;2022-09-03T06:46:08;6.95;;;4.07;;
27796;SDS011;15177;50.844;4.412;2022-09-03T06:48:41;7.53;;;4.55;;
27796;SDS011;15177;50.844;4.412;2022-09-03T06:51:18;7.00;;;4.00;;
27796;SDS011;15177;50.844;4.412;2022-09-03T06:53:46;5.65;;;4.47;;
27796;SDS011;15177;50.844;4.412;2022-09-03T06:56:15;9.88;;;3.88;;
27796;SDS011;15177;50.844;4.412;2022-09-03T06:58:43;8.95;;;4.15;;
27796;SDS011;15177;50.844;4.412;2022-09-03T07:01:21;5.47;;;3.85;;
27796;SDS011;15177;50.844;4.412;2022-09-03T07:03:53;4.72;;;4.10;;
27796;SDS011;15177;50.844;4.412;2022-09-03T07:06:20;5.68;;;3.90;;
27796;SDS011;15177;50.844;4.412;2022-09-03T07:08:56;8.98;;;4.00;;
27796;SDS011;15177;50.844;4.412;2022-09-03T07:11:24;7.03;;;3.40;;
27796;SDS011;15177;50.844;4.412;2022-09-03T07:13:51;8.95;;;4.10;;
27796;SDS011;15177;50.844;4.412;2022-09-03T07:16:20;8.20;;;3.53;;
27796;SDS011;15177;50.844;4.412;2022-09-03T07:18:48;7.05;;;3.67;;
27796;SDS011;15177;50.844;4.412;2022-09-03T07:21:15;6.82;;;3.45;;
27796;SDS011;15177;50.844;4.412;2022-09-03T07:23:42;3.83;;;3.38;;
27796;SDS011;15177;50.844;4.412;2022-09-03T07:26:10;4.45;;;2.90;;
27796;SDS011;15177;50.844;4.412;2022-09-03T07:28:41;11.02;;;3.83;;
27796;SDS011;15177;50.844;4.412;2022-09-03T07:31:14;8.27;;;3.50;;
27796;SDS011;15177;50.844;4.412;2022-09-03T07:33:43;7.50;;;3.22;;
27796;SDS011;15177;50.844;4.412;2022-09-03T07:36:11;8.48;;;3.08;;
27796;SDS011;15177;50.844;4.412;2022-09-03T07:38:41;8.00;;;3.92;;
27796;SDS011;15177;50.844;4.412;2022-09-03T07:41:12;6.90;;;2.72;;
27796;SDS011;15177;50.844;4.412;2022-09-03T07:43:42;8.27;;;3.78;;
27796;SDS011;15177;50.844;4.412;2022-09-03T07:46:16;8.25;;;3.33;;
27796;SDS011;15177;50.844;4.412;2022-09-03T07:48:51;5.97;;;3.58;;
27796;SDS011;15177;50.844;4.412;2022-09-03T07:51:22;7.68;;;3.40;;
27796;SDS011;15177;50.844;4.412;2022-09-03T07:53:55;3.92;;;3.10;;
27796;SDS011;15177;50.844;4.412;2022-09-03T07:56:25;5.03;;;3.40;;
27796;SDS011;15177;50.844;4.412;2022-09-03T07:58:52;4.13;;;3.20;;
27796;SDS011;15177;50.844;4.412;2022-09-03T08:01:21;8.45;;;3.10;;
27796;SDS011;15177;50.844;4.412;2022-09-03T08:03:49;5.03;;;3.25;;
27796;SDS011;15177;50.844;4.412;2022-09-03T08:06:17;3.95;;;2.75;;
27796;SDS011;15177;50.844;4.412;2022-09-03T08:08:45;4.38;;;2.97;;
27796;SDS011;15177;50.844;4.412;2022-09-03T08:11:18;5.38;;;3.40;;
27796;SDS011;15177;50.844;4.412;2022-09-03T08:13:52;6.45;;;3.25;;
27796;SDS011;15177;50.844;4.412;2022-09-03T08:16:21;5.63;;;3.58;;
27796;SDS011;15177;50.844;4.412;2022-09-03T08:18:47;9.20;;;3.58;;
27796;SDS011;15177;50.844;4.412;2022-09-03T08:21:16;10.15;;;3.83;;
27796;SDS011;15177;50.844;4.412;2022-09-03T08:23:48;5.43;;;2.92;;
27796;SDS011;15177;50.844;4.412;2022-09-03T08:26:16;7.85;;;3.47;;
27796;SDS011;15177;50.844;4.412;2022-09-03T08:28:43;5.32;;;3.25;;
27796;SDS011;15177;50.844;4.412;2022-09-03T08:31:10;4.72;;;3.20;;
27796;SDS011;15177;50.844;4.412;2022-09-03T08:33:42;5.00;;;2.90;;
27796;SDS011;15177;50.844;4.412;2022-09-03T08:36:10;6.63;;;3.38;;
27796;SDS011;15177;50.844;4.412;2022-09-03T08:38:41;3.35;;;2.92;;
27796;SDS011;15177;50.844;4.412;2022-09-03T08:41:12;4.97;;;3.40;;
27796;SDS011;15177;50.844;4.412;2022-09-03T08:43:49;4.22;;;3.22;;
27796;SDS011;15177;50.844;4.412;2022-09-03T08:46:17;11.00;;;4.10;;
27796;SDS011;15177;50.844;4.412;2022-09-03T08:48:45;8.15;;;3.53;;
27796;SDS011;15177;50.844;4.412;2022-09-03T08:51:12;8.65;;;3.95;;
27796;SDS011;15177;50.844;4.412;2022-09-03T08:53:48;7.75;;;3.90;;
27796;SDS011;15177;50.844;4.412;2022-09-03T08:56:29;10.63;;;4.38;;
27796;SDS011;15177;50.844;4.412;2022-09-03T08:58:56;6.85;;;3.97;;
27796;SDS011;15177;50.844;4.412;2022-09-03T09:04:47;10.85;;;4.70;;
27796;SDS011;15177;50.844;4.412;2022-09-03T09:09:51;6.18;;;4.07;;
27796;SDS011;15177;50.844;4.412;2022-09-03T09:21:22;7.63;;;4.18;;
27796;SDS011;15177;50.844;4.412;2022-09-03T09:23:51;9.30;;;4.55;;
27796;SDS011;15177;50.844;4.412;2022-09-03T09:26:24;6.22;;;4.32;;
27796;SDS011;15177;50.844;4.412;2022-09-03T09:28:54;7.07;;;4.65;;
27796;SDS011;15177;50.844;4.412;2022-09-03T09:31:26;7.55;;;4.20;;
27796;SDS011;15177;50.844;4.412;2022-09-03T09:34:05;7.30;;;4.28;;
27796;SDS011;15177;50.844;4.412;2022-09-03T09:36:36;8.68;;;4.45;;
27796;SDS011;15177;50.844;4.412;2022-09-03T09:39:07;7.70;;;4.60;;
27796;SDS011;15177;50.844;4.412;2022-09-03T09:41:34;9.15;;;4.57;;
27796;SDS011;15177;50.844;4.412;2022-09-03T09:44:00;9.07;;;4.20;;
27796;SDS011;15177;50.844;4.412;2022-09-03T09:46:30;7.30;;;4.78;;
27796;SDS011;15177;50.844;4.412;2022-09-03T09:49:02;12.88;;;4.85;;
27796;SDS011;15177;50.844;4.412;2022-09-03T09:51:32;9.95;;;4.65;;
27796;SDS011;15177;50.844;4.412;2022-09-03T09:56:44;8.00;;;4.43;;
27796;SDS011;15177;50.844;4.412;2022-09-03T09:59:11;7.85;;;4.55;;
27796;SDS011;15177;50.844;4.412;2022-09-03T10:01:42;12.68;;;6.20;;
27796;SDS011;15177;50.844;4.412;2022-09-03T10:04:13;8.55;;;5.47;;
27796;SDS011;15177;50.844;4.412;2022-09-03T10:06:55;9.43;;;5.28;;
27796;SDS011;15177;50.844;4.412;2022-09-03T10:09:43;7.20;;;4.95;;
27796;SDS011;15177;50.844;4.412;2022-09-03T10:12:13;5.78;;;4.90;;
27796;SDS011;15177;50.844;4.412;2022-09-03T10:14:50;6.40;;;4.57;;
27796;SDS011;15177;50.844;4.412;2022-09-03T10:17:29;8.07;;;4.68;;
27796;SDS011;15177;50.844;4.412;2022-09-03T10:20:11;5.53;;;4.55;;
27796;SDS011;15177;50.844;4.412;2022-09-03T10:25:51;7.85;;;4.65;;
27796;SDS011;15177;50.844;4.412;2022-09-03T10:28:35;9.48;;;5.18;;
27796;SDS011;15177;50.844;4.412;2022-09-03T10:45:35;9.05;;;4.72;;
27796;SDS011;15177;50.844;4.412;2022-09-03T10:56:24;8.13;;;5.47;;
27796;SDS011;15177;50.844;4.412;2022-09-03T10:59:01;9.35;;;4.90;;
27796;SDS011;15177;50.844;4.412;2022-09-03T11:07:08;8.68;;;4.80;;
27796;SDS011;15177;50.844;4.412;2022-09-03T11:09:38;8.18;;;5.43;;
27796;SDS011;15177;50.844;4.412;2022-09-03T11:12:21;13.93;;;5.65;;
27796;SDS011;15177;50.844;4.412;2022-09-03T11:14:58;8.57;;;5.35;;
27796;SDS011;15177;50.844;4.412;2022-09-03T11:17:33;6.13;;;4.80;;
27796;SDS011;15177;50.844;4.412;2022-09-03T11:20:22;8.50;;;5.15;;
27796;SDS011;15177;50.844;4.412;2022-09-03T11:22:49;6.00;;;4.65;;
27796;SDS011;15177;50.844;4.412;2022-09-03T11:25:19;5.32;;;4.78;;
27796;SDS011;15177;50.844;4.412;2022-09-03T11:33:58;5.65;;;4.55;;
27796;SDS011;15177;50.844;4.412;2022-09-03T11:36:34;5.50;;;4.05;;
27796;SDS011;15177;50.844;4.412;2022-09-03T11:40:03;7.75;;;4.65;;
27796;SDS011;15177;50.844;4.412;2022-09-03T11:41:58;5.32;;;3.95;;
27796;SDS011;15177;50.844;4.412;2022-09-03T11:44:37;4.22;;;3.83;;
27796;SDS011;15177;50.844;4.412;2022-09-03T11:47:20;7.57;;;4.05;;
27796;SDS011;15177;50.844;4.412;2022-09-03T11:49:49;5.35;;;4.43;;
27796;SDS011;15177;50.844;4.412;2022-09-03T11:52:29;8.70;;;5.20;;
27796;SDS011;15177;50.844;4.412;2022-09-03T11:54:56;7.97;;;5.15;;
27796;SDS011;15177;50.844;4.412;2022-09-03T11:57:27;9.38;;;4.50;;
27796;SDS011;15177;50.844;4.412;2022-09-03T11:59:54;5.15;;;4.65;;
27796;SDS011;15177;50.844;4.412;2022-09-03T12:02:34;6.07;;;4.18;;
27796;SDS011;15177;50.844;4.412;2022-09-03T12:11:09;7.05;;;4.55;;
27796;SDS011;15177;50.844;4.412;2022-09-03T12:16:20;5.82;;;4.70;;
27796;SDS011;15177;50.844;4.412;2022-09-03T12:22:01;5.97;;;4.65;;
27796;SDS011;15177;50.844;4.412;2022-09-03T12:24:29;5.97;;;4.50;;
27796;SDS011;15177;50.844;4.412;2022-09-03T12:27:01;6.88;;;3.55;;
27796;SDS011;15177;50.844;4.412;2022-09-03T12:29:30;5.45;;;4.28;;
27796;SDS011;15177;50.844;4.412;2022-09-03T12:32:04;5.20;;;3.80;;
27796;SDS011;15177;50.844;4.412;2022-09-03T12:34:34;6.35;;;4.53;;
27796;SDS011;15177;50.844;4.412;2022-09-03T12:36:59;5.20;;;4.30;;
27796;SDS011;15177;50.844;4.412;2022-09-03T12:39:26;4.30;;;3.88;;
27796;SDS011;15177;50.844;4.412;2022-09-03T12:42:00;4.13;;;3.38;;
27796;SDS011;15177;50.844;4.412;2022-09-03T12:47:00;8.02;;;6.18;;
27796;SDS011;15177;50.844;4.412;2022-09-03T12:49:32;4.30;;;3.40;;
27796;SDS011;15177;50.844;4.412;2022-09-03T12:52:00;3.80;;;3.40;;
27796;SDS011;15177;50.844;4.412;2022-09-03T12:54:31;5.22;;;4.00;;
27796;SDS011;15177;50.844;4.412;2022-09-03T12:56:59;5.93;;;3.45;;
27796;SDS011;15177;50.844;4.412;2022-09-03T12:59:26;3.92;;;3.33;;
27796;SDS011;15177;50.844;4.412;2022-09-03T13:01:57;8.07;;;3.60;;
27796;SDS011;15177;50.844;4.412;2022-09-03T13:04:31;4.93;;;3.28;;
27796;SDS011;15177;50.844;4.412;2022-09-03T13:09:44;6.00;;;3.60;;
27796;SDS011;15177;50.844;4.412;2022-09-03T13:12:21;7.03;;;4.03;;
27796;SDS011;15177;50.844;4.412;2022-09-03T13:14:53;7.28;;;3.90;;
27796;SDS011;15177;50.844;4.412;2022-09-03T13:25:49;5.18;;;3.70;;
27796;SDS011;15177;50.844;4.412;2022-09-03T13:31:36;4.45;;;3.70;;
27796;SDS011;15177;50.844;4.412;2022-09-03T13:34:10;7.32;;;4.93;;
27796;SDS011;15177;50.844;4.412;2022-09-03T13:36:44;6.40;;;4.13;;
27796;SDS011;15177;50.844;4.412;2022-09-03T13:39:29;5.43;;;3.65;;
27796;SDS011;15177;50.844;4.412;2022-09-03T13:42:17;6.10;;;3.63;;
27796;SDS011;15177;50.844;4.412;2022-09-03T13:48:05;4.75;;;3.63;;
27796;SDS011;15177;50.844;4.412;2022-09-03T13:51:00;4.13;;;2.95;;
27796;SDS011;15177;50.844;4.412;2022-09-03T13:53:43;5.50;;;3.20;;
27796;SDS011;15177;50.844;4.412;2022-09-03T13:58:48;4.35;;;2.97;;
27796;SDS011;15177;50.844;4.412;2022-09-03T14:01:22;5.20;;;3.13;;
27796;SDS011;15177;50.844;4.412;2022-09-03T14:04:09;5.88;;;3.00;;
27796;SDS011;15177;50.844;4.412;2022-09-03T14:07:00;5.85;;;2.83;;
27796;SDS011;15177;50.844;4.412;2022-09-03T14:09:35;4.47;;;2.22;;
27796;SDS011;15177;50.844;4.412;2022-09-03T14:12:13;2.30;;;2.10;;
27796;SDS011;15177;50.844;4.412;2022-09-03T14:15:02;4.60;;;2.45;;
27796;SDS011;15177;50.844;4.412;2022-09-03T14:17:47;4.50;;;2.28;;
27796;SDS011;15177;50.844;4.412;2022-09-03T14:20:31;2.95;;;2.45;;
27796;SDS011;15177;50.844;4.412;2022-09-03T14:23:06;3.15;;;2.33;;
27796;SDS011;15177;50.844;4.412;2022-09-03T14:25:53;4.30;;;2.53;;
27796;SDS011;15177;50.844;4.412;2022-09-03T14:28:35;4.75;;;2.08;;
27796;SDS011;15177;50.844;4.412;2022-09-03T14:31:12;4.63;;;1.95;;
27796;SDS011;15177;50.844;4.412;2022-09-03T14:47:48;7.13;;;3.10;;
27796;SDS011;15177;50.844;4.412;2022-09-03T14:58:42;10.10;;;3.50;;
27796;SDS011;15177;50.844;4.412;2022-09-03T15:01:21;5.35;;;3.40;;
27796;SDS011;15177;50.844;4.412;2022-09-03T15:03:54;5.10;;;3.60;;
27796;SDS011;15177;50.844;4.412;2022-09-03T15:12:43;8.02;;;3.60;;
27796;SDS011;15177;50.844;4.412;2022-09-03T15:15:31;5.82;;;3.55;;
27796;SDS011;15177;50.844;4.412;2022-09-03T15:20:52;7.78;;;3.75;;
27796;SDS011;15177;50.844;4.412;2022-09-03T15:23:25;7.72;;;3.45;;
27796;SDS011;15177;50.844;4.412;2022-09-03T15:37:22;5.43;;;3.10;;
27796;SDS011;15177;50.844;4.412;2022-09-03T15:42:46;4.70;;;3.38;;
27796;SDS011;15177;50.844;4.412;2022-09-03T15:45:19;4.43;;;3.33;;
27796;SDS011;15177;50.844;4.412;2022-09-03T15:48:05;5.85;;;4.25;;
27796;SDS011;15177;50.844;4.412;2022-09-03T15:56:16;6.30;;;4.35;;
27796;SDS011;15177;50.844;4.412;2022-09-03T15:59:00;7.32;;;4.78;;
27796;SDS011;15177;50.844;4.412;2022-09-03T16:01:39;8.32;;;4.60;;
27796;SDS011;15177;50.844;4.412;2022-09-03T16:04:18;9.40;;;4.40;;
27796;SDS011;15177;50.844;4.412;2022-09-03T16:07:00;6.90;;;3.97;;
27796;SDS011;15177;50.844;4.412;2022-09-03T16:09:35;7.45;;;5.05;;
27796;SDS011;15177;50.844;4.412;2022-09-03T16:15:06;7.50;;;4.38;;
27796;SDS011;15177;50.844;4.412;2022-09-03T16:25:33;7.18;;;4.50;;
27796;SDS011;15177;50.844;4.412;2022-09-03T16:28:10;4.72;;;4.00;;
27796;SDS011;15177;50.844;4.412;2022-09-03T16:33:26;9.07;;;5.20;;
27796;SDS011;15177;50.844;4.412;2022-09-03T16:39:25;7.93;;;4.95;;
27796;SDS011;15177;50.844;4.412;2022-09-03T16:42:07;6.32;;;4.82;;
27796;SDS011;15177;50.844;4.412;2022-09-03T16:44:46;8.48;;;4.68;;
27796;SDS011;15177;50.844;4.412;2022-09-03T16:55:58;5.63;;;3.50;;
27796;SDS011;15177;50.844;4.412;2022-09-03T16:59:04;7.93;;;4.28;;
27796;SDS011;15177;50.844;4.412;2022-09-03T17:04:29;7.45;;;5.50;;
27796;SDS011;15177;50.844;4.412;2022-09-03T17:20:43;8.55;;;4.45;;
27796;SDS011;15177;50.844;4.412;2022-09-03T17:26:16;7.88;;;4.53;;
27796;SDS011;15177;50.844;4.412;2022-09-03T17:37:31;9.02;;;4.50;;
27796;SDS011;15177;50.844;4.412;2022-09-03T17:45:55;7.93;;;4.85;;
27796;SDS011;15177;50.844;4.412;2022-09-03T18:02:23;4.60;;;3.30;;
27796;SDS011;15177;50.844;4.412;2022-09-03T18:04:57;4.93;;;2.95;;
27796;SDS011;15177;50.844;4.412;2022-09-03T18:07:32;9.13;;;3.17;;
27796;SDS011;15177;50.844;4.412;2022-09-03T18:15:38;5.45;;;2.83;;
27796;SDS011;15177;50.844;4.412;2022-09-03T18:18:23;4.25;;;2.78;;
27796;SDS011;15177;50.844;4.412;2022-09-03T18:20:53;4.68;;;3.00;;
27796;SDS011;15177;50.844;4.412;2022-09-03T18:23:47;5.60;;;3.67;;
27796;SDS011;15177;50.844;4.412;2022-09-03T18:26:41;5.65;;;3.78;;
27796;SDS011;15177;50.844;4.412;2022-09-03T18:29:33;9.57;;;3.97;;
27796;SDS011;15177;50.844;4.412;2022-09-03T18:32:22;7.78;;;3.60;;
27796;SDS011;15177;50.844;4.412;2022-09-03T18:35:06;5.03;;;3.20;;
27796;SDS011;15177;50.844;4.412;2022-09-03T18:37:52;4.47;;;3.13;;
27796;SDS011;15177;50.844;4.412;2022-09-03T18:40:49;6.07;;;3.45;;
27796;SDS011;15177;50.844;4.412;2022-09-03T18:46:36;5.13;;;3.88;;
27796;SDS011;15177;50.844;4.412;2022-09-03T18:49:39;4.72;;;3.30;;
27796;SDS011;15177;50.844;4.412;2022-09-03T18:52:51;4.50;;;2.40;;
27796;SDS011;15177;50.844;4.412;2022-09-03T18:56:07;4.13;;;2.72;;
27796;SDS011;15177;50.844;4.412;2022-09-03T18:59:21;7.20;;;2.42;;
27796;SDS011;15177;50.844;4.412;2022-09-03T19:02:16;3.20;;;2.28;;
27796;SDS011;15177;50.844;4.412;2022-09-03T19:05:12;3.92;;;2.55;;
27796;SDS011;15177;50.844;4.412;2022-09-03T19:08:09;3.78;;;2.40;;
27796;SDS011;15177;50.844;4.412;2022-09-03T19:11:27;2.30;;;1.98;;
27796;SDS011;15177;50.844;4.412;2022-09-03T19:14:18;3.25;;;2.17;;
27796;SDS011;15177;50.844;4.412;2022-09-03T19:17:23;5.07;;;2.67;;
27796;SDS011;15177;50.844;4.412;2022-09-03T19:20:27;4.38;;;2.70;;
27796;SDS011;15177;50.844;4.412;2022-09-03T19:23:14;4.80;;;2.60;;
27796;SDS011;15177;50.844;4.412;2022-09-03T19:26:01;4.47;;;2.60;;
27796;SDS011;15177;50.844;4.412;2022-09-03T19:28:55;3.50;;;2.47;;
27796;SDS011;15177;50.844;4.412;2022-09-03T19:31:54;6.28;;;3.20;;
27796;SDS011;15177;50.844;4.412;2022-09-03T19:37:40;5.65;;;2.90;;
27796;SDS011;15177;50.844;4.412;2022-09-03T19:40:56;3.50;;;2.92;;
27796;SDS011;15177;50.844;4.412;2022-09-03T19:46:50;5.53;;;3.38;;
27796;SDS011;15177;50.844;4.412;2022-09-03T19:53:09;5.03;;;2.97;;
27796;SDS011;15177;50.844;4.412;2022-09-03T19:55:57;5.13;;;3.53;;
27796;SDS011;15177;50.844;4.412;2022-09-03T19:58:46;5.55;;;3.45;;
27796;SDS011;15177;50.844;4.412;2022-09-03T20:01:38;4.78;;;3.17;;
27796;SDS011;15177;50.844;4.412;2022-09-03T20:04:34;4.93;;;2.97;;
27796;SDS011;15177;50.844;4.412;2022-09-03T20:07:22;4.60;;;3.92;;
27796;SDS011;15177;50.844;4.412;2022-09-03T20:10:08;5.20;;;3.30;;
27796;SDS011;15177;50.844;4.412;2022-09-03T20:24:15;5.45;;;3.80;;
27796;SDS011;15177;50.844;4.412;2022-09-03T20:32:16;5.93;;;3.92;;
27796;SDS011;15177;50.844;4.412;2022-09-03T20:37:44;5.43;;;4.07;;
27796;SDS011;15177;50.844;4.412;2022-09-03T20:40:26;11.27;;;4.40;;
27796;SDS011;15177;50.844;4.412;2022-09-03T20:48:56;5.82;;;4.32;;